sensor_id;sensor_type;location;lat;lon;timestamp;P1;durP1;ratioP1;P2;durP2;ratioP2
69900;SDS011;57183;50.930;5.406;2023-08-06T00:00:37;2.85;;;0.75;;
69900;SDS011;57183;50.930;5.406;2023-08-06T00:03:03;1.98;;;0.82;;
69900;SDS011;57183;50.930;5.406;2023-08-06T00:05:29;1.35;;;0.70;;
69900;SDS011;57183;50.930;5.406;2023-08-06T00:07:54;2.10;;;0.80;;
69900;SDS011;57183;50.930;5.406;2023-08-06T00:10:20;2.85;;;0.70;;
69900;SDS011;57183;50.930;5.406;2023-08-06T00:12:46;1.38;;;0.70;;
69900;SDS011;57183;50.930;5.406;2023-08-06T00:15:12;1.60;;;0.70;;
69900;SDS011;57183;50.930;5.406;2023-08-06T00:17:37;4.93;;;0.50;;
69900;SDS011;57183;50.930;5.406;2023-08-06T00:20:04;2.05;;;0.95;;
69900;SDS011;57183;50.930;5.406;2023-08-06T00:22:34;1.77;;;0.70;;
69900;SDS011;57183;50.930;5.406;2023-08-06T00:25:01;3.50;;;0.63;;
69900;SDS011;57183;50.930;5.406;2023-08-06T00:27:27;0.90;;;0.60;;
69900;SDS011;57183;50.930;5.406;2023-08-06T00:29:53;1.45;;;0.70;;
69900;SDS011;57183;50.930;5.406;2023-08-06T00:32:18;1.17;;;0.50;;
69900;SDS011;57183;50.930;5.406;2023-08-06T00:34:44;1.75;;;0.60;;
69900;SDS011;57183;50.930;5.406;2023-08-06T00:37:10;2.30;;;0.55;;
69900;SDS011;57183;50.930;5.406;2023-08-06T00:39:35;2.25;;;0.70;;
69900;SDS011;57183;50.930;5.406;2023-08-06T00:42:01;1.15;;;0.40;;
69900;SDS011;57183;50.930;5.406;2023-08-06T00:44:27;3.42;;;0.82;;
69900;SDS011;57183;50.930;5.406;2023-08-06T00:46:52;2.28;;;0.70;;
69900;SDS011;57183;50.930;5.406;2023-08-06T00:49:18;2.17;;;0.50;;
69900;SDS011;57183;50.930;5.406;2023-08-06T00:51:44;5.90;;;0.80;;
69900;SDS011;57183;50.930;5.406;2023-08-06T00:54:10;1.25;;;0.85;;
69900;SDS011;57183;50.930;5.406;2023-08-06T00:56:35;3.20;;;0.65;;
69900;SDS011;57183;50.930;5.406;2023-08-06T00:59:05;1.52;;;0.40;;
69900;SDS011;57183;50.930;5.406;2023-08-06T01:01:31;5.72;;;1.35;;
69900;SDS011;57183;50.930;5.406;2023-08-06T01:03:57;1.83;;;0.65;;
69900;SDS011;57183;50.930;5.406;2023-08-06T01:06:30;2.13;;;0.70;;
69900;SDS011;57183;50.930;5.406;2023-08-06T01:09:06;4.43;;;1.05;;
69900;SDS011;57183;50.930;5.406;2023-08-06T01:11:54;2.13;;;0.60;;
69900;SDS011;57183;50.930;5.406;2023-08-06T01:14:37;2.00;;;0.57;;
69900;SDS011;57183;50.930;5.406;2023-08-06T01:17:07;3.13;;;0.57;;
69900;SDS011;57183;50.930;5.406;2023-08-06T01:19:34;0.80;;;0.47;;
69900;SDS011;57183;50.930;5.406;2023-08-06T01:22:00;2.47;;;0.60;;
69900;SDS011;57183;50.930;5.406;2023-08-06T01:24:26;1.88;;;0.50;;
69900;SDS011;57183;50.930;5.406;2023-08-06T01:26:55;2.92;;;0.50;;
69900;SDS011;57183;50.930;5.406;2023-08-06T01:29:34;1.83;;;0.43;;
69900;SDS011;57183;50.930;5.406;2023-08-06T01:32:04;4.38;;;1.80;;
69900;SDS011;57183;50.930;5.406;2023-08-06T01:34:32;4.03;;;0.90;;
69900;SDS011;57183;50.930;5.406;2023-08-06T01:37:00;1.95;;;0.70;;
69900;SDS011;57183;50.930;5.406;2023-08-06T01:39:26;1.25;;;0.52;;
69900;SDS011;57183;50.930;5.406;2023-08-06T01:41:52;2.45;;;0.65;;
69900;SDS011;57183;50.930;5.406;2023-08-06T01:44:17;1.30;;;0.60;;
69900;SDS011;57183;50.930;5.406;2023-08-06T01:46:43;0.93;;;0.50;;
69900;SDS011;57183;50.930;5.406;2023-08-06T01:49:09;3.05;;;0.80;;
69900;SDS011;57183;50.930;5.406;2023-08-06T01:51:35;1.60;;;0.57;;
69900;SDS011;57183;50.930;5.406;2023-08-06T01:54:00;1.38;;;0.60;;
69900;SDS011;57183;50.930;5.406;2023-08-06T01:56:26;1.08;;;0.50;;
69900;SDS011;57183;50.930;5.406;2023-08-06T01:58:52;1.50;;;0.40;;
69900;SDS011;57183;50.930;5.406;2023-08-06T02:01:17;1.45;;;0.55;;
69900;SDS011;57183;50.930;5.406;2023-08-06T02:03:43;2.28;;;0.73;;
69900;SDS011;57183;50.930;5.406;2023-08-06T02:06:08;2.35;;;0.68;;
69900;SDS011;57183;50.930;5.406;2023-08-06T02:08:34;4.55;;;1.25;;
69900;SDS011;57183;50.930;5.406;2023-08-06T02:11:00;1.00;;;0.57;;
69900;SDS011;57183;50.930;5.406;2023-08-06T02:13:26;2.70;;;0.50;;
69900;SDS011;57183;50.930;5.406;2023-08-06T02:15:52;3.90;;;0.70;;
69900;SDS011;57183;50.930;5.406;2023-08-06T02:18:18;2.70;;;0.47;;
69900;SDS011;57183;50.930;5.406;2023-08-06T02:20:43;0.60;;;0.35;;
69900;SDS011;57183;50.930;5.406;2023-08-06T02:23:19;2.45;;;0.88;;
69900;SDS011;57183;50.930;5.406;2023-08-06T02:25:45;1.05;;;0.40;;
69900;SDS011;57183;50.930;5.406;2023-08-06T02:28:10;0.60;;;0.43;;
69900;SDS011;57183;50.930;5.406;2023-08-06T02:30:36;1.73;;;0.60;;
69900;SDS011;57183;50.930;5.406;2023-08-06T02:33:01;1.10;;;0.40;;
69900;SDS011;57183;50.930;5.406;2023-08-06T02:35:27;2.80;;;0.63;;
69900;SDS011;57183;50.930;5.406;2023-08-06T02:37:53;1.02;;;0.38;;
69900;SDS011;57183;50.930;5.406;2023-08-06T02:40:18;1.13;;;0.50;;
69900;SDS011;57183;50.930;5.406;2023-08-06T02:42:44;1.35;;;0.40;;
69900;SDS011;57183;50.930;5.406;2023-08-06T02:45:10;2.85;;;0.75;;
69900;SDS011;57183;50.930;5.406;2023-08-06T02:47:35;1.10;;;0.40;;
69900;SDS011;57183;50.930;5.406;2023-08-06T02:50:01;3.13;;;0.60;;
69900;SDS011;57183;50.930;5.406;2023-08-06T02:52:26;0.75;;;0.50;;
69900;SDS011;57183;50.930;5.406;2023-08-06T02:54:52;0.40;;;0.22;;
69900;SDS011;57183;50.930;5.406;2023-08-06T02:57:17;1.55;;;0.50;;
69900;SDS011;57183;50.930;5.406;2023-08-06T02:59:43;2.55;;;0.75;;
69900;SDS011;57183;50.930;5.406;2023-08-06T03:02:09;2.20;;;0.52;;
69900;SDS011;57183;50.930;5.406;2023-08-06T03:04:34;1.88;;;0.47;;
69900;SDS011;57183;50.930;5.406;2023-08-06T03:07:00;2.15;;;0.68;;
69900;SDS011;57183;50.930;5.406;2023-08-06T03:09:25;0.88;;;0.47;;
69900;SDS011;57183;50.930;5.406;2023-08-06T03:11:51;1.13;;;0.50;;
69900;SDS011;57183;50.930;5.406;2023-08-06T03:14:17;0.95;;;0.70;;
69900;SDS011;57183;50.930;5.406;2023-08-06T03:16:42;2.88;;;0.60;;
69900;SDS011;57183;50.930;5.406;2023-08-06T03:19:08;0.88;;;0.70;;
69900;SDS011;57183;50.930;5.406;2023-08-06T03:21:33;1.83;;;0.80;;
69900;SDS011;57183;50.930;5.406;2023-08-06T03:23:59;2.47;;;0.90;;
69900;SDS011;57183;50.930;5.406;2023-08-06T03:26:25;0.95;;;0.60;;
69900;SDS011;57183;50.930;5.406;2023-08-06T03:28:50;6.40;;;2.67;;
69900;SDS011;57183;50.930;5.406;2023-08-06T03:31:16;2.00;;;0.60;;
69900;SDS011;57183;50.930;5.406;2023-08-06T03:33:41;1.55;;;0.80;;
69900;SDS011;57183;50.930;5.406;2023-08-06T03:36:07;1.00;;;0.73;;
69900;SDS011;57183;50.930;5.406;2023-08-06T03:38:33;1.48;;;0.82;;
69900;SDS011;57183;50.930;5.406;2023-08-06T03:40:58;2.10;;;0.80;;
69900;SDS011;57183;50.930;5.406;2023-08-06T03:43:24;1.27;;;1.00;;
69900;SDS011;57183;50.930;5.406;2023-08-06T03:45:50;1.10;;;0.80;;
69900;SDS011;57183;50.930;5.406;2023-08-06T03:48:15;3.30;;;1.27;;
69900;SDS011;57183;50.930;5.406;2023-08-06T03:50:41;3.90;;;1.40;;
69900;SDS011;57183;50.930;5.406;2023-08-06T03:53:07;1.75;;;1.27;;
69900;SDS011;57183;50.930;5.406;2023-08-06T03:55:32;3.38;;;1.63;;
69900;SDS011;57183;50.930;5.406;2023-08-06T03:57:58;3.47;;;1.63;;
69900;SDS011;57183;50.930;5.406;2023-08-06T04:00:23;3.30;;;1.85;;
69900;SDS011;57183;50.930;5.406;2023-08-06T04:02:49;1.90;;;1.42;;
69900;SDS011;57183;50.930;5.406;2023-08-06T04:05:15;4.45;;;1.80;;
69900;SDS011;57183;50.930;5.406;2023-08-06T04:07:42;4.50;;;2.00;;
69900;SDS011;57183;50.930;5.406;2023-08-06T04:10:07;3.88;;;2.38;;
69900;SDS011;57183;50.930;5.406;2023-08-06T04:12:33;3.47;;;2.38;;
69900;SDS011;57183;50.930;5.406;2023-08-06T04:15:01;3.40;;;2.17;;
69900;SDS011;57183;50.930;5.406;2023-08-06T04:17:28;4.55;;;2.17;;
69900;SDS011;57183;50.930;5.406;2023-08-06T04:19:54;7.70;;;3.80;;
69900;SDS011;57183;50.930;5.406;2023-08-06T04:22:20;6.68;;;2.63;;
69900;SDS011;57183;50.930;5.406;2023-08-06T04:24:46;3.90;;;3.08;;
69900;SDS011;57183;50.930;5.406;2023-08-06T04:27:13;9.32;;;3.63;;
69900;SDS011;57183;50.930;5.406;2023-08-06T04:29:39;8.68;;;3.45;;
69900;SDS011;57183;50.930;5.406;2023-08-06T04:32:06;10.30;;;4.00;;
69900;SDS011;57183;50.930;5.406;2023-08-06T04:34:33;5.80;;;3.30;;
69900;SDS011;57183;50.930;5.406;2023-08-06T04:36:59;4.85;;;3.20;;
69900;SDS011;57183;50.930;5.406;2023-08-06T04:39:25;5.22;;;3.38;;
69900;SDS011;57183;50.930;5.406;2023-08-06T04:41:51;5.40;;;3.55;;
69900;SDS011;57183;50.930;5.406;2023-08-06T04:44:16;6.30;;;3.70;;
69900;SDS011;57183;50.930;5.406;2023-08-06T04:46:42;4.63;;;3.53;;
69900;SDS011;57183;50.930;5.406;2023-08-06T04:49:08;7.10;;;3.47;;
69900;SDS011;57183;50.930;5.406;2023-08-06T04:51:33;9.55;;;3.75;;
69900;SDS011;57183;50.930;5.406;2023-08-06T04:53:59;6.28;;;4.00;;
69900;SDS011;57183;50.930;5.406;2023-08-06T04:56:25;7.50;;;3.88;;
69900;SDS011;57183;50.930;5.406;2023-08-06T04:58:50;6.85;;;3.97;;
69900;SDS011;57183;50.930;5.406;2023-08-06T05:01:16;5.80;;;4.10;;
69900;SDS011;57183;50.930;5.406;2023-08-06T05:03:42;7.25;;;3.97;;
69900;SDS011;57183;50.930;5.406;2023-08-06T05:06:07;7.40;;;3.85;;
69900;SDS011;57183;50.930;5.406;2023-08-06T05:08:33;5.68;;;3.55;;
69900;SDS011;57183;50.930;5.406;2023-08-06T05:10:59;6.53;;;3.65;;
69900;SDS011;57183;50.930;5.406;2023-08-06T05:13:25;5.32;;;3.75;;
69900;SDS011;57183;50.930;5.406;2023-08-06T05:15:51;8.35;;;3.63;;
69900;SDS011;57183;50.930;5.406;2023-08-06T05:18:18;4.20;;;3.20;;
69900;SDS011;57183;50.930;5.406;2023-08-06T05:20:44;4.78;;;3.53;;
69900;SDS011;57183;50.930;5.406;2023-08-06T05:23:10;6.20;;;3.55;;
69900;SDS011;57183;50.930;5.406;2023-08-06T05:25:36;5.38;;;2.95;;
69900;SDS011;57183;50.930;5.406;2023-08-06T05:28:02;6.25;;;3.58;;
69900;SDS011;57183;50.930;5.406;2023-08-06T05:30:28;6.45;;;3.00;;
69900;SDS011;57183;50.930;5.406;2023-08-06T05:32:54;4.20;;;2.80;;
69900;SDS011;57183;50.930;5.406;2023-08-06T05:35:20;6.15;;;2.78;;
69900;SDS011;57183;50.930;5.406;2023-08-06T05:37:46;7.22;;;3.13;;
69900;SDS011;57183;50.930;5.406;2023-08-06T05:40:12;5.38;;;2.60;;
69900;SDS011;57183;50.930;5.406;2023-08-06T05:42:39;5.63;;;3.22;;
69900;SDS011;57183;50.930;5.406;2023-08-06T05:45:05;5.03;;;2.70;;
69900;SDS011;57183;50.930;5.406;2023-08-06T05:47:31;3.42;;;2.53;;
69900;SDS011;57183;50.930;5.406;2023-08-06T05:49:57;8.10;;;2.95;;
69900;SDS011;57183;50.930;5.406;2023-08-06T05:52:22;5.78;;;2.67;;
69900;SDS011;57183;50.930;5.406;2023-08-06T05:54:48;5.20;;;2.85;;
69900;SDS011;57183;50.930;5.406;2023-08-06T05:57:14;4.53;;;1.90;;
69900;SDS011;57183;50.930;5.406;2023-08-06T05:59:40;2.63;;;1.60;;
69900;SDS011;57183;50.930;5.406;2023-08-06T06:02:06;1.42;;;0.90;;
69900;SDS011;57183;50.930;5.406;2023-08-06T06:04:32;0.85;;;0.60;;
69900;SDS011;57183;50.930;5.406;2023-08-06T06:06:57;2.25;;;1.00;;
69900;SDS011;57183;50.930;5.406;2023-08-06T06:09:23;3.38;;;1.17;;
69900;SDS011;57183;50.930;5.406;2023-08-06T06:11:49;2.47;;;1.42;;
69900;SDS011;57183;50.930;5.406;2023-08-06T06:14:15;1.63;;;1.08;;
69900;SDS011;57183;50.930;5.406;2023-08-06T06:16:42;4.60;;;2.22;;
69900;SDS011;57183;50.930;5.406;2023-08-06T06:19:07;3.35;;;1.98;;
69900;SDS011;57183;50.930;5.406;2023-08-06T06:21:33;2.80;;;1.77;;
69900;SDS011;57183;50.930;5.406;2023-08-06T06:23:59;6.55;;;2.50;;
69900;SDS011;57183;50.930;5.406;2023-08-06T06:26:24;2.65;;;1.90;;
69900;SDS011;57183;50.930;5.406;2023-08-06T06:28:50;2.00;;;1.58;;
69900;SDS011;57183;50.930;5.406;2023-08-06T06:31:16;2.90;;;1.48;;
69900;SDS011;57183;50.930;5.406;2023-08-06T06:33:42;1.10;;;1.00;;
69900;SDS011;57183;50.930;5.406;2023-08-06T06:36:07;1.40;;;0.98;;
69900;SDS011;57183;50.930;5.406;2023-08-06T06:38:33;1.25;;;0.80;;
69900;SDS011;57183;50.930;5.406;2023-08-06T06:40:59;1.65;;;1.17;;
69900;SDS011;57183;50.930;5.406;2023-08-06T06:43:25;1.00;;;0.90;;
69900;SDS011;57183;50.930;5.406;2023-08-06T06:46:01;1.92;;;1.25;;
69900;SDS011;57183;50.930;5.406;2023-08-06T06:48:27;1.55;;;1.45;;
69900;SDS011;57183;50.930;5.406;2023-08-06T06:50:54;3.35;;;2.45;;
69900;SDS011;57183;50.930;5.406;2023-08-06T06:53:20;4.43;;;2.28;;
69900;SDS011;57183;50.930;5.406;2023-08-06T06:55:46;2.38;;;2.17;;
69900;SDS011;57183;50.930;5.406;2023-08-06T06:58:14;3.80;;;3.22;;
69900;SDS011;57183;50.930;5.406;2023-08-06T07:00:41;4.05;;;2.67;;
69900;SDS011;57183;50.930;5.406;2023-08-06T07:03:07;7.18;;;3.83;;
69900;SDS011;57183;50.930;5.406;2023-08-06T07:05:32;3.17;;;2.88;;
69900;SDS011;57183;50.930;5.406;2023-08-06T07:07:58;3.53;;;3.22;;
69900;SDS011;57183;50.930;5.406;2023-08-06T07:10:23;6.32;;;4.00;;
69900;SDS011;57183;50.930;5.406;2023-08-06T07:12:50;4.13;;;3.72;;
69900;SDS011;57183;50.930;5.406;2023-08-06T07:15:16;3.70;;;3.40;;
69900;SDS011;57183;50.930;5.406;2023-08-06T07:17:42;5.55;;;5.07;;
69900;SDS011;57183;50.930;5.406;2023-08-06T07:20:08;4.20;;;3.83;;
69900;SDS011;57183;50.930;5.406;2023-08-06T07:22:34;4.97;;;4.32;;
69900;SDS011;57183;50.930;5.406;2023-08-06T07:25:00;6.60;;;4.60;;
69900;SDS011;57183;50.930;5.406;2023-08-06T07:27:26;4.88;;;4.35;;
69900;SDS011;57183;50.930;5.406;2023-08-06T07:29:52;5.45;;;3.45;;
69900;SDS011;57183;50.930;5.406;2023-08-06T07:32:17;6.93;;;4.40;;
69900;SDS011;57183;50.930;5.406;2023-08-06T07:34:43;5.55;;;4.07;;
69900;SDS011;57183;50.930;5.406;2023-08-06T07:37:09;3.28;;;2.90;;
69900;SDS011;57183;50.930;5.406;2023-08-06T07:39:34;4.65;;;2.60;;
69900;SDS011;57183;50.930;5.406;2023-08-06T07:42:02;3.65;;;2.65;;
69900;SDS011;57183;50.930;5.406;2023-08-06T07:44:30;1.67;;;1.50;;
69900;SDS011;57183;50.930;5.406;2023-08-06T07:46:56;2.47;;;1.65;;
69900;SDS011;57183;50.930;5.406;2023-08-06T07:49:22;8.27;;;3.28;;
69900;SDS011;57183;50.930;5.406;2023-08-06T07:51:47;7.18;;;3.78;;
69900;SDS011;57183;50.930;5.406;2023-08-06T07:54:13;8.98;;;3.97;;
69900;SDS011;57183;50.930;5.406;2023-08-06T07:56:39;6.30;;;3.58;;
69900;SDS011;57183;50.930;5.406;2023-08-06T07:59:05;6.43;;;2.30;;
69900;SDS011;57183;50.930;5.406;2023-08-06T08:01:30;8.45;;;2.55;;
69900;SDS011;57183;50.930;5.406;2023-08-06T08:03:56;8.35;;;3.80;;
69900;SDS011;57183;50.930;5.406;2023-08-06T08:06:21;11.75;;;5.10;;
69900;SDS011;57183;50.930;5.406;2023-08-06T08:08:48;8.40;;;4.20;;
69900;SDS011;57183;50.930;5.406;2023-08-06T08:11:13;10.70;;;5.03;;
69900;SDS011;57183;50.930;5.406;2023-08-06T08:13:41;6.03;;;3.38;;
69900;SDS011;57183;50.930;5.406;2023-08-06T08:16:06;13.10;;;4.70;;
69900;SDS011;57183;50.930;5.406;2023-08-06T08:18:32;10.45;;;5.45;;
69900;SDS011;57183;50.930;5.406;2023-08-06T08:20:58;6.85;;;3.17;;
69900;SDS011;57183;50.930;5.406;2023-08-06T08:23:23;10.82;;;4.68;;
69900;SDS011;57183;50.930;5.406;2023-08-06T08:25:49;12.77;;;5.78;;
69900;SDS011;57183;50.930;5.406;2023-08-06T08:28:15;15.20;;;7.15;;
69900;SDS011;57183;50.930;5.406;2023-08-06T08:30:41;18.30;;;10.13;;
69900;SDS011;57183;50.930;5.406;2023-08-06T08:33:06;14.15;;;5.68;;
69900;SDS011;57183;50.930;5.406;2023-08-06T08:35:33;21.70;;;6.63;;
69900;SDS011;57183;50.930;5.406;2023-08-06T08:37:59;6.72;;;3.05;;
69900;SDS011;57183;50.930;5.406;2023-08-06T08:40:26;5.47;;;1.67;;
69900;SDS011;57183;50.930;5.406;2023-08-06T08:42:57;7.18;;;2.70;;
69900;SDS011;57183;50.930;5.406;2023-08-06T08:45:24;10.88;;;2.00;;
69900;SDS011;57183;50.930;5.406;2023-08-06T08:47:53;5.25;;;2.03;;
69900;SDS011;57183;50.930;5.406;2023-08-06T08:50:19;5.88;;;2.13;;
69900;SDS011;57183;50.930;5.406;2023-08-06T08:52:46;8.25;;;2.55;;
69900;SDS011;57183;50.930;5.406;2023-08-06T08:55:14;4.70;;;1.55;;
69900;SDS011;57183;50.930;5.406;2023-08-06T08:57:40;3.35;;;1.75;;
69900;SDS011;57183;50.930;5.406;2023-08-06T09:00:06;6.32;;;2.60;;
69900;SDS011;57183;50.930;5.406;2023-08-06T09:02:32;5.20;;;1.75;;
69900;SDS011;57183;50.930;5.406;2023-08-06T09:04:59;5.90;;;2.70;;
69900;SDS011;57183;50.930;5.406;2023-08-06T09:07:27;8.70;;;2.25;;
69900;SDS011;57183;50.930;5.406;2023-08-06T09:09:58;5.18;;;2.10;;
69900;SDS011;57183;50.930;5.406;2023-08-06T09:12:28;2.47;;;1.40;;
69900;SDS011;57183;50.930;5.406;2023-08-06T09:14:54;6.47;;;2.20;;
69900;SDS011;57183;50.930;5.406;2023-08-06T09:17:20;5.40;;;1.30;;
69900;SDS011;57183;50.930;5.406;2023-08-06T09:19:46;6.13;;;1.55;;
69900;SDS011;57183;50.930;5.406;2023-08-06T09:22:13;4.95;;;1.20;;
69900;SDS011;57183;50.930;5.406;2023-08-06T09:24:40;9.70;;;1.10;;
69900;SDS011;57183;50.930;5.406;2023-08-06T09:27:10;2.67;;;1.10;;
69900;SDS011;57183;50.930;5.406;2023-08-06T09:29:39;5.38;;;1.10;;
69900;SDS011;57183;50.930;5.406;2023-08-06T09:32:06;3.38;;;0.80;;
69900;SDS011;57183;50.930;5.406;2023-08-06T09:34:32;6.60;;;1.42;;
69900;SDS011;57183;50.930;5.406;2023-08-06T09:36:58;4.65;;;1.55;;
69900;SDS011;57183;50.930;5.406;2023-08-06T09:39:27;5.63;;;1.60;;
69900;SDS011;57183;50.930;5.406;2023-08-06T09:41:57;3.83;;;0.93;;
69900;SDS011;57183;50.930;5.406;2023-08-06T09:44:25;3.85;;;1.40;;
69900;SDS011;57183;50.930;5.406;2023-08-06T09:46:52;5.05;;;1.35;;
69900;SDS011;57183;50.930;5.406;2023-08-06T09:49:25;7.53;;;2.55;;
69900;SDS011;57183;50.930;5.406;2023-08-06T09:51:54;3.72;;;1.33;;
69900;SDS011;57183;50.930;5.406;2023-08-06T09:54:24;6.22;;;1.45;;
69900;SDS011;57183;50.930;5.406;2023-08-06T09:56:52;2.38;;;1.45;;
69900;SDS011;57183;50.930;5.406;2023-08-06T09:59:21;4.93;;;1.15;;
69900;SDS011;57183;50.930;5.406;2023-08-06T10:01:49;4.53;;;1.90;;
69900;SDS011;57183;50.930;5.406;2023-08-06T10:04:15;5.22;;;1.50;;
69900;SDS011;57183;50.930;5.406;2023-08-06T10:06:42;4.18;;;1.05;;
69900;SDS011;57183;50.930;5.406;2023-08-06T10:09:11;1.42;;;0.93;;
69900;SDS011;57183;50.930;5.406;2023-08-06T10:11:36;7.78;;;3.67;;
69900;SDS011;57183;50.930;5.406;2023-08-06T10:14:06;14.70;;;4.60;;
69900;SDS011;57183;50.930;5.406;2023-08-06T10:16:54;25.90;;;8.90;;
69900;SDS011;57183;50.930;5.406;2023-08-06T10:19:22;14.70;;;6.88;;
69900;SDS011;57183;50.930;5.406;2023-08-06T10:22:08;22.63;;;8.63;;
69900;SDS011;57183;50.930;5.406;2023-08-06T10:24:45;23.35;;;11.25;;
69900;SDS011;57183;50.930;5.406;2023-08-06T10:27:21;20.90;;;7.32;;
69900;SDS011;57183;50.930;5.406;2023-08-06T10:29:52;9.25;;;3.15;;
69900;SDS011;57183;50.930;5.406;2023-08-06T10:32:18;4.88;;;2.05;;
69900;SDS011;57183;50.930;5.406;2023-08-06T10:34:54;5.35;;;2.25;;
69900;SDS011;57183;50.930;5.406;2023-08-06T10:37:36;5.03;;;2.60;;
69900;SDS011;57183;50.930;5.406;2023-08-06T10:40:02;7.57;;;2.20;;
69900;SDS011;57183;50.930;5.406;2023-08-06T10:42:29;7.40;;;2.47;;
69900;SDS011;57183;50.930;5.406;2023-08-06T10:47:38;3.30;;;2.10;;
69900;SDS011;57183;50.930;5.406;2023-08-06T10:50:04;2.78;;;1.90;;
69900;SDS011;57183;50.930;5.406;2023-08-06T10:52:32;4.50;;;1.73;;
69900;SDS011;57183;50.930;5.406;2023-08-06T10:54:58;3.75;;;1.20;;
69900;SDS011;57183;50.930;5.406;2023-08-06T10:57:24;2.83;;;1.17;;
69900;SDS011;57183;50.930;5.406;2023-08-06T10:59:49;2.45;;;1.20;;
69900;SDS011;57183;50.930;5.406;2023-08-06T11:02:16;2.40;;;1.20;;
69900;SDS011;57183;50.930;5.406;2023-08-06T11:04:41;2.53;;;1.17;;
69900;SDS011;57183;50.930;5.406;2023-08-06T11:07:07;2.03;;;1.08;;
69900;SDS011;57183;50.930;5.406;2023-08-06T11:09:33;2.53;;;0.80;;
69900;SDS011;57183;50.930;5.406;2023-08-06T11:11:58;4.80;;;1.10;;
69900;SDS011;57183;50.930;5.406;2023-08-06T11:14:24;2.83;;;0.98;;
69900;SDS011;57183;50.930;5.406;2023-08-06T11:16:50;4.95;;;1.65;;
69900;SDS011;57183;50.930;5.406;2023-08-06T11:19:16;7.50;;;1.40;;
69900;SDS011;57183;50.930;5.406;2023-08-06T11:21:42;3.55;;;1.00;;
69900;SDS011;57183;50.930;5.406;2023-08-06T11:24:12;6.30;;;1.13;;
69900;SDS011;57183;50.930;5.406;2023-08-06T11:26:38;1.40;;;0.70;;
69900;SDS011;57183;50.930;5.406;2023-08-06T11:29:05;3.33;;;0.77;;
69900;SDS011;57183;50.930;5.406;2023-08-06T11:31:31;3.03;;;1.00;;
69900;SDS011;57183;50.930;5.406;2023-08-06T11:33:56;3.20;;;0.60;;
69900;SDS011;57183;50.930;5.406;2023-08-06T11:36:29;2.35;;;0.70;;
69900;SDS011;57183;50.930;5.406;2023-08-06T11:38:55;0.70;;;0.60;;
69900;SDS011;57183;50.930;5.406;2023-08-06T11:41:21;3.17;;;1.25;;
69900;SDS011;57183;50.930;5.406;2023-08-06T11:43:47;2.40;;;1.13;;
69900;SDS011;57183;50.930;5.406;2023-08-06T11:46:12;1.60;;;0.82;;
69900;SDS011;57183;50.930;5.406;2023-08-06T11:48:51;3.70;;;1.27;;
69900;SDS011;57183;50.930;5.406;2023-08-06T11:51:17;4.10;;;1.13;;
69900;SDS011;57183;50.930;5.406;2023-08-06T11:53:46;4.93;;;1.25;;
69900;SDS011;57183;50.930;5.406;2023-08-06T11:56:14;2.17;;;1.17;;
69900;SDS011;57183;50.930;5.406;2023-08-06T11:58:41;6.45;;;0.90;;
69900;SDS011;57183;50.930;5.406;2023-08-06T12:01:07;4.53;;;1.20;;
69900;SDS011;57183;50.930;5.406;2023-08-06T12:03:38;2.50;;;1.27;;
69900;SDS011;57183;50.930;5.406;2023-08-06T12:06:04;7.20;;;1.10;;
69900;SDS011;57183;50.930;5.406;2023-08-06T12:08:30;2.33;;;0.77;;
69900;SDS011;57183;50.930;5.406;2023-08-06T12:10:55;2.95;;;0.90;;
69900;SDS011;57183;50.930;5.406;2023-08-06T12:13:21;4.40;;;0.57;;
69900;SDS011;57183;50.930;5.406;2023-08-06T12:15:47;4.22;;;0.70;;
69900;SDS011;57183;50.930;5.406;2023-08-06T12:18:12;5.68;;;0.70;;
69900;SDS011;57183;50.930;5.406;2023-08-06T12:20:38;0.93;;;0.60;;
69900;SDS011;57183;50.930;5.406;2023-08-06T12:23:04;7.50;;;1.25;;
69900;SDS011;57183;50.930;5.406;2023-08-06T12:25:29;2.92;;;0.70;;
69900;SDS011;57183;50.930;5.406;2023-08-06T12:27:55;3.05;;;0.80;;
69900;SDS011;57183;50.930;5.406;2023-08-06T12:30:20;7.53;;;0.93;;
69900;SDS011;57183;50.930;5.406;2023-08-06T12:32:46;3.35;;;1.00;;
69900;SDS011;57183;50.930;5.406;2023-08-06T12:35:12;4.43;;;0.77;;
69900;SDS011;57183;50.930;5.406;2023-08-06T12:37:39;1.38;;;0.60;;
69900;SDS011;57183;50.930;5.406;2023-08-06T12:40:05;0.93;;;0.65;;
69900;SDS011;57183;50.930;5.406;2023-08-06T12:42:31;2.72;;;1.35;;
69900;SDS011;57183;50.930;5.406;2023-08-06T12:44:57;2.75;;;1.27;;
69900;SDS011;57183;50.930;5.406;2023-08-06T12:47:23;4.78;;;1.05;;
69900;SDS011;57183;50.930;5.406;2023-08-06T12:49:49;6.38;;;1.50;;
69900;SDS011;57183;50.930;5.406;2023-08-06T12:52:14;1.73;;;1.25;;
69900;SDS011;57183;50.930;5.406;2023-08-06T12:54:41;3.75;;;1.25;;
69900;SDS011;57183;50.930;5.406;2023-08-06T12:57:07;1.88;;;0.85;;
69900;SDS011;57183;50.930;5.406;2023-08-06T12:59:33;4.55;;;1.10;;
69900;SDS011;57183;50.930;5.406;2023-08-06T13:01:59;2.30;;;0.93;;
69900;SDS011;57183;50.930;5.406;2023-08-06T13:04:25;2.40;;;0.98;;
69900;SDS011;57183;50.930;5.406;2023-08-06T13:06:51;4.25;;;0.93;;
69900;SDS011;57183;50.930;5.406;2023-08-06T13:09:16;4.20;;;0.73;;
69900;SDS011;57183;50.930;5.406;2023-08-06T13:11:42;0.98;;;0.77;;
69900;SDS011;57183;50.930;5.406;2023-08-06T13:14:11;4.15;;;0.93;;
69900;SDS011;57183;50.930;5.406;2023-08-06T13:16:39;1.45;;;0.63;;
69900;SDS011;57183;50.930;5.406;2023-08-06T13:19:06;4.03;;;1.13;;
69900;SDS011;57183;50.930;5.406;2023-08-06T13:23:59;1.92;;;0.73;;
69900;SDS011;57183;50.930;5.406;2023-08-06T13:26:31;1.33;;;0.93;;
69900;SDS011;57183;50.930;5.406;2023-08-06T13:28:57;1.73;;;0.60;;
69900;SDS011;57183;50.930;5.406;2023-08-06T13:31:24;1.38;;;0.60;;
69900;SDS011;57183;50.930;5.406;2023-08-06T13:33:51;0.90;;;0.55;;
69900;SDS011;57183;50.930;5.406;2023-08-06T13:36:17;3.22;;;0.98;;
69900;SDS011;57183;50.930;5.406;2023-08-06T13:38:42;5.53;;;0.82;;
69900;SDS011;57183;50.930;5.406;2023-08-06T13:41:08;2.20;;;0.52;;
69900;SDS011;57183;50.930;5.406;2023-08-06T13:43:34;4.55;;;0.57;;
69900;SDS011;57183;50.930;5.406;2023-08-06T13:45:59;2.63;;;1.15;;
69900;SDS011;57183;50.930;5.406;2023-08-06T13:48:25;3.15;;;1.17;;
69900;SDS011;57183;50.930;5.406;2023-08-06T13:50:51;2.08;;;1.23;;
69900;SDS011;57183;50.930;5.406;2023-08-06T13:53:16;2.00;;;0.70;;
69900;SDS011;57183;50.930;5.406;2023-08-06T13:55:42;3.03;;;0.90;;
69900;SDS011;57183;50.930;5.406;2023-08-06T13:58:08;2.92;;;1.13;;
69900;SDS011;57183;50.930;5.406;2023-08-06T14:00:33;1.85;;;1.08;;
69900;SDS011;57183;50.930;5.406;2023-08-06T14:03:00;4.30;;;0.93;;
69900;SDS011;57183;50.930;5.406;2023-08-06T14:05:26;4.63;;;0.95;;
69900;SDS011;57183;50.930;5.406;2023-08-06T14:07:52;3.10;;;1.05;;
69900;SDS011;57183;50.930;5.406;2023-08-06T14:10:17;2.90;;;1.10;;
69900;SDS011;57183;50.930;5.406;2023-08-06T14:12:43;2.42;;;0.98;;
69900;SDS011;57183;50.930;5.406;2023-08-06T14:15:10;3.15;;;0.63;;
69900;SDS011;57183;50.930;5.406;2023-08-06T14:17:36;0.85;;;0.60;;
69900;SDS011;57183;50.930;5.406;2023-08-06T14:20:01;1.23;;;0.85;;
69900;SDS011;57183;50.930;5.406;2023-08-06T14:22:29;3.50;;;0.90;;
69900;SDS011;57183;50.930;5.406;2023-08-06T14:24:56;2.70;;;1.00;;
69900;SDS011;57183;50.930;5.406;2023-08-06T14:27:23;1.95;;;0.52;;
69900;SDS011;57183;50.930;5.406;2023-08-06T14:29:48;1.70;;;0.40;;
69900;SDS011;57183;50.930;5.406;2023-08-06T14:32:14;1.38;;;0.38;;
69900;SDS011;57183;50.930;5.406;2023-08-06T14:34:43;2.50;;;0.30;;
69900;SDS011;57183;50.930;5.406;2023-08-06T14:37:09;3.25;;;0.30;;
69900;SDS011;57183;50.930;5.406;2023-08-06T14:39:35;0.95;;;0.40;;
69900;SDS011;57183;50.930;5.406;2023-08-06T14:42:01;1.50;;;0.30;;
69900;SDS011;57183;50.930;5.406;2023-08-06T14:44:27;0.28;;;0.17;;
69900;SDS011;57183;50.930;5.406;2023-08-06T14:46:52;0.38;;;0.20;;
69900;SDS011;57183;50.930;5.406;2023-08-06T14:49:18;2.58;;;0.70;;